Time;durP1;ratioP1;P1;durP2;ratioP2;P2;SDS_P1;SDS_P2;PMS_P1;PMS_P2;Temp;Humidity;BMP_temperature;BMP_pressure;BME280_temperature;BME280_humidity;BME280_pressure;Samples;Min_cycle;Max_cycle;Signal;HPM_P1;HPM_P2
2022/02/15 00:04:44;;;;;;;57.40;53.23;;;;;;;6.09;100.00;101007.81;1966427;72;32950;-75
2022/02/15 00:10:29;;;;;;;58.43;54.23;;;;;;;6.03;100.00;101022.63;2013091;71;32812;-72
2022/02/15 00:16:16;;;;;;;59.37;55.53;;;;;;;6.09;100.00;101029.33;2008744;70;32809;-71
2022/02/15 00:22:00;;;;;;;60.30;56.00;;;;;;;6.02;100.00;101036.11;1999638;71;32820;-72
2022/02/15 00:27:45;;;;;;;57.77;53.63;;;;;;;5.82;100.00;101028.28;2014565;71;32904;-71
2022/02/15 00:33:29;;;;;;;57.87;53.87;;;;;;;5.78;100.00;101021.06;2009147;70;33394;-74
2022/02/15 00:39:13;;;;;;;56.27;52.47;;;;;;;5.81;100.00;101020.58;2005307;71;33267;-74
2022/02/15 00:44:57;;;;;;;60.23;55.87;;;;;;;5.66;100.00;101014.79;2010603;71;33039;-74
2022/02/15 00:50:42;;;;;;;57.87;53.83;;;;;;;5.68;100.00;101036.06;1997919;71;32902;-73
2022/02/15 00:56:26;;;;;;;63.30;58.77;;;;;;;5.67;100.00;101027.49;1998075;71;33396;-70
2022/02/15 01:02:11;;;;;;;59.63;55.17;;;;;;;5.63;100.00;101035.96;2000072;71;32744;-74
2022/02/15 01:07:55;;;;;;;58.07;53.97;;;;;;;5.56;100.00;101034.45;2016155;71;33280;-74
2022/02/15 01:13:39;;;;;;;59.50;55.40;;;;;;;5.64;100.00;101039.02;2016088;71;32793;-72
2022/02/15 01:19:24;;;;;;;59.13;54.87;;;;;;;5.59;100.00;101039.46;1998657;71;33266;-71
2022/02/15 01:25:09;;;;;;;60.43;56.07;;;;;;;5.60;100.00;101057.14;1998019;71;33306;-74
2022/02/15 01:30:53;;;;;;;61.27;56.93;;;;;;;5.60;100.00;101052.16;2007411;71;32916;-72
2022/02/15 01:36:37;;;;;;;59.23;55.00;;;;;;;5.60;100.00;101070.91;1990976;71;32738;-72
2022/02/15 01:42:21;;;;;;;59.17;55.07;;;;;;;5.59;100.00;101060.13;2007094;71;33080;-75
2022/02/15 01:48:08;;;;;;;60.93;56.70;;;;;;;5.59;100.00;101066.48;2016315;71;32814;-75
2022/02/15 01:53:52;;;;;;;60.40;56.30;;;;;;;5.58;100.00;101068.92;2008695;70;32934;-72
2022/02/15 01:59:38;;;;;;;60.47;56.27;;;;;;;5.66;100.00;101069.06;2009413;71;32732;-73
2022/02/15 02:11:24;;;;;;;59.77;55.67;;;;;;;5.70;100.00;101073.83;2007176;71;32869;-73
2022/02/15 02:17:08;;;;;;;61.80;57.60;;;;;;;5.66;100.00;101083.69;2011222;71;33225;-74
2022/02/15 02:22:53;;;;;;;60.77;56.60;;;;;;;5.63;100.00;101073.16;1999729;71;33291;-71
2022/02/15 02:28:39;;;;;;;60.93;56.70;;;;;;;5.62;100.00;101078.38;2016100;71;32800;-71
2022/02/15 02:34:23;;;;;;;61.07;56.83;;;;;;;5.54;100.00;101079.31;2016126;71;33414;-74
2022/02/15 02:40:10;;;;;;;63.73;58.87;;;;;;;5.48;100.00;101083.34;2001852;71;32764;-72
2022/02/15 02:45:55;;;;;;;58.60;54.50;;;;;;;5.39;100.00;101097.78;2011289;71;32943;-74
2022/02/15 02:51:39;;;;;;;61.70;57.00;;;;;;;5.47;100.00;101083.61;2016144;71;32850;-74
2022/02/15 02:57:23;;;;;;;62.87;58.57;;;;;;;5.34;100.00;101095.75;2012801;71;33363;-71
2022/02/15 03:03:08;;;;;;;59.90;55.80;;;;;;;5.22;100.00;101100.44;1992316;71;32742;-74
2022/02/15 03:08:52;;;;;;;62.37;57.67;;;;;;;5.17;100.00;101101.73;2016169;71;33317;-73
2022/02/15 03:14:36;;;;;;;60.50;56.20;;;;;;;5.07;100.00;101086.90;2003483;71;32905;-75
2022/02/15 03:20:20;;;;;;;62.43;57.90;;;;;;;5.13;100.00;101104.68;1998302;71;32750;-72
2022/02/15 03:26:05;;;;;;;61.23;56.80;;;;;;;5.10;100.00;101089.16;1998044;71;33226;-71
2022/02/15 03:31:49;;;;;;;63.90;59.00;;;;;;;5.10;100.00;101100.17;2001969;71;32835;-74
2022/02/15 03:37:33;;;;;;;61.47;56.90;;;;;;;4.92;100.00;101098.44;2007767;71;32845;-74
2022/02/15 03:43:17;;;;;;;61.73;57.53;;;;;;;5.07;100.00;101108.92;2016097;71;32887;-71
2022/02/15 03:49:01;;;;;;;62.70;57.90;;;;;;;4.87;100.00;101100.54;2000224;71;32839;-74
2022/02/15 03:54:45;;;;;;;61.30;56.60;;;;;;;4.86;100.00;101091.98;2018004;71;33339;-76
2022/02/15 04:00:30;;;;;;;62.00;57.30;;;;;;;4.72;100.00;101093.30;2007429;71;32776;-71
2022/02/15 04:06:14;;;;;;;63.13;58.43;;;;;;;4.70;100.00;101087.22;2014526;71;32814;-73
2022/02/15 04:11:58;;;;;;;60.73;56.10;;;;;;;4.59;100.00;101077.05;2007530;71;32886;-74
2022/02/15 04:17:42;;;;;;;60.30;55.60;;;;;;;4.52;100.00;101087.34;2000110;71;32748;-72
2022/02/15 04:23:28;;;;;;;60.00;55.50;;;;;;;4.45;100.00;101070.14;2004965;71;32883;-72
2022/02/15 04:29:14;;;;;;;59.60;54.93;;;;;;;4.33;100.00;101061.86;2016055;71;32898;-74
2022/02/15 04:34:58;;;;;;;55.67;51.37;;;;;;;4.27;100.00;101071.09;2003719;71;33314;-72
2022/02/15 04:40:42;;;;;;;58.00;53.50;;;;;;;4.41;100.00;101084.87;2003513;71;33282;-72
2022/02/15 04:46:26;;;;;;;58.80;54.40;;;;;;;4.54;100.00;101077.77;2005662;70;32776;-75
2022/02/15 04:52:10;;;;;;;59.17;54.40;;;;;;;4.55;100.00;101073.94;2005436;70;33306;-72
2022/02/15 04:57:54;;;;;;;57.13;52.73;;;;;;;4.70;100.00;101067.96;2008929;71;32920;-72
2022/02/15 05:03:39;;;;;;;58.17;53.47;;;;;;;4.95;100.00;101064.37;2016200;71;32925;-72
2022/02/15 05:09:23;;;;;;;56.47;51.97;;;;;;;5.17;100.00;101058.21;2007381;71;32804;-74
2022/02/15 05:15:10;;;;;;;59.63;55.07;;;;;;;5.22;100.00;101050.06;2016219;71;33365;-72
2022/02/15 05:20:54;;;;;;;57.80;53.23;;;;;;;5.42;100.00;101050.45;1991345;71;33415;-75
2022/02/15 05:26:38;;;;;;;56.73;52.27;;;;;;;5.44;100.00;101040.00;1999579;71;32877;-73
2022/02/15 05:32:22;;;;;;;59.93;54.43;;;;;;;5.45;100.00;101034.80;2016146;71;32874;-74
2022/02/15 05:38:06;;;;;;;58.03;53.50;;;;;;;5.40;100.00;101052.06;1994330;71;32888;-71
2022/02/15 05:43:50;;;;;;;58.50;53.90;;;;;;;5.49;100.00;101043.70;2003825;71;32834;-72
2022/02/15 05:50:49;;;;;;;56.67;52.27;;;;;;;5.45;100.00;101011.38;2005587;71;32806;-74
2022/02/15 05:55:22;;;;;;;57.20;52.73;;;;;;;5.46;100.00;100997.37;1991087;71;32816;-72
2022/02/15 06:01:08;;;;;;;58.80;53.73;;;;;;;5.51;100.00;100991.11;2000242;71;32833;-72
2022/02/15 06:06:53;;;;;;;58.43;53.80;;;;;;;5.53;100.00;100982.05;2007418;71;32902;-71
2022/02/15 06:12:37;;;;;;;57.90;52.80;;;;;;;5.48;100.00;100980.57;1994865;71;32875;-72
2022/02/15 06:18:24;;;;;;;57.90;53.20;;;;;;;5.65;100.00;100965.45;1998028;71;32786;-72
2022/02/15 06:24:09;;;;;;;58.00;53.57;;;;;;;5.64;100.00;100957.73;2003424;71;32845;-74
2022/02/15 06:29:53;;;;;;;58.27;53.70;;;;;;;5.59;100.00;100970.58;2003226;71;32735;-75
2022/02/15 06:35:37;;;;;;;60.73;56.20;;;;;;;5.58;100.00;100956.50;2008794;71;32898;-75
2022/02/15 06:41:21;;;;;;;58.67;53.93;;;;;;;5.64;100.00;100972.05;2016127;71;33012;-74
2022/02/15 06:47:07;;;;;;;58.40;53.60;;;;;;;5.73;100.00;100988.47;2009154;70;33398;-72
2022/02/15 06:52:52;;;;;;;58.43;53.70;;;;;;;5.88;100.00;100992.87;2014468;71;32820;-74
2022/02/15 06:58:37;;;;;;;59.30;54.50;;;;;;;6.01;100.00;100988.94;2014191;71;32882;-71
2022/02/15 07:04:21;;;;;;;62.57;57.47;;;;;;;6.03;100.00;100966.09;2010605;71;32802;-75
2022/02/15 07:10:10;;;;;;;62.03;57.27;;;;;;;6.01;100.00;100956.69;2010822;71;32909;-71
2022/02/15 07:15:55;;;;;;;59.10;54.30;;;;;;;6.06;100.00;100957.31;2012546;71;33305;-72
2022/02/15 07:21:39;;;;;;;58.20;53.90;;;;;;;6.13;100.00;100960.17;2002153;71;32777;-71
2022/02/15 07:27:26;;;;;;;59.97;55.43;;;;;;;6.20;100.00;100948.44;2016396;71;32884;-73
2022/02/15 07:33:10;;;;;;;63.03;58.03;;;;;;;6.26;100.00;100907.95;1994696;71;32952;-71
2022/02/15 07:38:54;;;;;;;60.47;55.30;;;;;;;6.28;100.00;100894.75;2012570;71;33021;-72
2022/02/15 07:44:39;;;;;;;58.87;53.97;;;;;;;6.36;100.00;100900.66;1997958;70;33274;-74
2022/02/15 07:50:25;;;;;;;59.40;54.20;;;;;;;6.64;100.00;100907.05;2010751;71;33293;-75
2022/02/15 07:56:09;;;;;;;59.23;53.83;;;;;;;6.75;100.00;100907.47;2009633;71;33231;-73
2022/02/15 08:01:54;;;;;;;59.23;54.20;;;;;;;6.92;100.00;100911.52;2014560;71;32946;-71
2022/02/15 08:07:48;;;;;;;61.03;55.53;;;;;;;6.98;100.00;100917.38;1904477;75;33162;-71
2022/02/15 08:13:34;;;;;;;60.03;54.33;;;;;;;7.17;100.00;100896.05;1997932;71;32949;-74
2022/02/15 08:19:25;;;;;;;58.10;53.03;;;;;;;7.32;100.00;100899.48;2009323;71;32844;-75
2022/02/15 08:25:09;;;;;;;58.43;53.23;;;;;;;7.46;100.00;100889.67;2003897;71;33309;-71
2022/02/15 08:30:53;;;;;;;56.40;51.07;;;;;;;7.52;100.00;100890.55;1994772;71;33279;-72
2022/02/15 08:36:37;;;;;;;57.27;52.27;;;;;;;7.78;100.00;100875.83;2002080;71;33294;-73
2022/02/15 08:42:21;;;;;;;56.17;51.23;;;;;;;7.98;100.00;100868.20;2014419;71;32862;-74
2022/02/15 08:48:08;;;;;;;57.07;51.50;;;;;;;8.04;100.00;100860.22;1998274;71;32753;-73
2022/02/15 08:53:53;;;;;;;61.40;55.90;;;;;;;8.19;100.00;100841.75;1997900;71;32892;-71
2022/02/15 08:59:38;;;;;;;60.00;54.80;;;;;;;8.32;100.00;100841.00;1996502;71;32832;-74
2022/02/15 09:05:23;;;;;;;62.27;56.60;;;;;;;8.52;100.00;100824.46;2014231;71;32813;-74
2022/02/15 09:11:08;;;;;;;62.77;57.70;;;;;;;8.61;100.00;100813.14;1990934;71;32746;-73
2022/02/15 09:16:52;;;;;;;66.63;60.60;;;;;;;8.73;100.00;100797.69;2007545;71;32918;-72
2022/02/15 09:22:36;;;;;;;61.30;55.77;;;;;;;8.83;100.00;100793.52;2001943;71;32882;-72
2022/02/15 09:28:21;;;;;;;60.10;54.67;;;;;;;8.94;100.00;100789.09;2017819;71;32823;-75
2022/02/15 09:34:06;;;;;;;59.37;53.87;;;;;;;9.04;100.00;100760.57;2003534;71;33513;-73
2022/02/15 09:39:52;;;;;;;64.60;59.07;;;;;;;9.17;100.00;100762.78;2015955;71;32888;-72
2022/02/15 09:45:37;;;;;;;61.87;56.77;;;;;;;9.28;100.00;100753.92;2014537;71;33308;-71
2022/02/15 09:51:25;;;;;;;65.40;60.10;;;;;;;9.39;100.00;100737.53;2000234;71;33229;-74
2022/02/15 09:57:09;;;;;;;59.70;53.70;;;;;;;9.52;100.00;100730.02;2010518;71;32799;-71
2022/02/15 10:02:55;;;;;;;63.57;57.67;;;;;;;9.58;100.00;100725.55;2010758;71;33244;-75
2022/02/15 10:08:37;;;;;;;58.37;53.53;;;;;;;9.70;100.00;100710.02;2016184;71;33351;-72
2022/02/15 10:14:26;;;;;;;62.67;57.53;;;;;;;9.84;100.00;100722.73;2014361;71;32886;-73
2022/02/15 10:20:11;;;;;;;60.23;55.43;;;;;;;9.90;100.00;100710.47;2014422;71;32894;-72
2022/02/15 10:25:56;;;;;;;64.13;58.27;;;;;;;9.93;100.00;100700.19;2016126;71;32904;-71
2022/02/15 10:31:42;;;;;;;59.10;53.70;;;;;;;9.85;100.00;100691.07;2010714;71;32827;-72
2022/02/15 10:37:28;;;;;;;61.30;56.00;;;;;;;9.82;100.00;100681.94;2008803;71;32807;-72
2022/02/15 10:43:13;;;;;;;64.77;59.07;;;;;;;9.75;100.00;100661.45;2016187;71;32921;-74
2022/02/15 10:48:58;;;;;;;61.00;55.47;;;;;;;9.81;100.00;100670.02;2005381;71;32938;-75
2022/02/15 10:54:44;;;;;;;62.80;57.20;;;;;;;9.87;100.00;100651.41;2000216;71;32805;-72
2022/02/15 11:00:30;;;;;;;61.07;55.83;;;;;;;9.94;100.00;100633.87;2010957;71;32843;-74
2022/02/15 11:06:15;;;;;;;62.27;56.97;;;;;;;10.02;100.00;100623.00;1999801;71;32912;-72
2022/02/15 11:12:08;;;;;;;60.20;55.00;;;;;;;10.07;100.00;100619.37;1998305;71;32894;-75
2022/02/15 11:17:55;;;;;;;61.20;56.27;;;;;;;10.10;100.00;100627.11;2011156;71;33578;-73
2022/02/15 11:23:45;;;;;;;62.80;57.40;;;;;;;10.10;100.00;100617.98;2016401;71;33284;-74
2022/02/15 11:29:28;;;;;;;62.73;57.23;;;;;;;10.09;100.00;100620.48;2008840;71;32930;-74
2022/02/15 11:35:15;;;;;;;61.93;56.63;;;;;;;10.09;100.00;100614.93;2006635;70;32905;-73
2022/02/15 11:41:07;;;;;;;60.67;55.37;;;;;;;10.10;100.00;100613.82;2014455;71;33300;-72
2022/02/15 11:46:52;;;;;;;60.40;54.23;;;;;;;10.13;100.00;100605.74;2000425;71;33220;-74
2022/02/15 11:52:36;;;;;;;60.27;54.67;;;;;;;10.14;100.00;100582.98;2008828;71;32808;-73
2022/02/15 11:58:23;;;;;;;60.67;55.47;;;;;;;10.18;100.00;100573.00;2016166;71;32868;-73
2022/02/15 12:04:10;;;;;;;55.90;50.37;;;;;;;10.21;100.00;100565.47;2007592;71;33255;-72
2022/02/15 12:09:56;;;;;;;56.37;51.37;;;;;;;10.22;100.00;100558.25;1991100;71;32786;-73
2022/02/15 12:15:49;;;;;;;57.03;51.80;;;;;;;10.25;100.00;100556.83;1996859;71;32744;-72
2022/02/15 12:21:43;;;;;;;58.73;53.67;;;;;;;10.25;100.00;100545.17;2007108;71;32814;-74
2022/02/15 12:27:28;;;;;;;60.40;55.00;;;;;;;10.32;100.00;100544.27;1994298;71;33374;-73
2022/02/15 12:33:13;;;;;;;57.00;52.27;;;;;;;10.29;100.00;100526.81;1999612;71;33322;-72
2022/02/15 12:38:58;;;;;;;59.50;54.73;;;;;;;10.38;100.00;100518.68;2000441;71;32740;-75
2022/02/15 12:44:42;;;;;;;55.47;50.63;;;;;;;10.37;100.00;100500.36;2005212;71;32875;-74
2022/02/15 12:50:26;;;;;;;57.43;52.63;;;;;;;10.35;100.00;100504.00;2016389;71;33292;-73
2022/02/15 12:56:11;;;;;;;58.27;53.57;;;;;;;10.34;100.00;100501.78;1990934;71;33294;-75
2022/02/15 13:02:00;;;;;;;56.73;52.30;;;;;;;10.33;100.00;100486.24;2003712;71;33329;-72
2022/02/15 13:07:49;;;;;;;57.97;53.40;;;;;;;10.34;100.00;100487.07;2014371;71;33324;-73
2022/02/15 13:13:39;;;;;;;55.33;51.17;;;;;;;10.38;100.00;100472.88;2018050;71;33283;-74
2022/02/15 13:19:34;;;;;;;55.77;51.47;;;;;;;10.35;100.00;100462.36;2016170;71;32819;-74
2022/02/15 13:25:25;;;;;;;57.57;53.17;;;;;;;10.35;100.00;100456.25;1991058;71;32790;-74
2022/02/15 13:31:09;;;;;;;56.90;52.40;;;;;;;10.39;100.00;100471.76;2000257;71;32840;-73
2022/02/15 13:37:02;;;;;;;57.70;53.00;;;;;;;10.40;100.00;100460.89;1996604;71;33242;-74
2022/02/15 13:42:47;;;;;;;58.33;53.70;;;;;;;10.37;100.00;100441.50;2003493;71;32853;-73
2022/02/15 13:48:31;;;;;;;57.10;52.60;;;;;;;10.42;100.00;100422.58;1998672;71;33336;-75
2022/02/15 13:54:16;;;;;;;57.10;52.60;;;;;;;10.44;100.00;100416.15;1996353;71;32767;-73
2022/02/15 14:00:00;;;;;;;57.93;53.63;;;;;;;10.45;100.00;100413.64;2014510;71;32830;-72
2022/02/15 14:05:44;;;;;;;55.37;51.10;;;;;;;10.50;100.00;100411.65;2008686;71;32826;-73
2022/02/15 14:11:28;;;;;;;56.53;51.90;;;;;;;10.54;100.00;100422.98;2015973;71;32991;-73
2022/02/15 14:23:17;;;;;;;54.13;49.63;;;;;;;10.56;100.00;100439.36;2013171;71;32863;-74
2022/02/15 14:29:02;;;;;;;53.67;49.17;;;;;;;10.54;100.00;100424.94;2008967;71;32825;-74
2022/02/15 14:34:46;;;;;;;54.43;50.03;;;;;;;10.55;100.00;100404.38;2005316;71;33266;-72
2022/02/15 14:40:32;;;;;;;54.33;49.73;;;;;;;10.50;100.00;100396.37;2012908;71;32834;-72
2022/02/15 14:46:17;;;;;;;52.97;48.77;;;;;;;10.55;100.00;100385.77;1998029;71;32946;-74
2022/02/15 14:52:03;;;;;;;53.60;49.27;;;;;;;10.60;100.00;100366.83;2003673;71;33341;-72
2022/02/15 14:57:47;;;;;;;52.30;48.27;;;;;;;10.62;100.00;100379.28;2003226;71;32873;-73
2022/02/15 15:03:32;;;;;;;55.40;51.03;;;;;;;10.65;100.00;100380.09;2008710;71;32966;-72
2022/02/15 15:09:21;;;;;;;56.00;51.23;;;;;;;10.66;100.00;100397.01;1999691;71;32816;-74
2022/02/15 15:15:05;;;;;;;58.17;53.97;;;;;;;10.27;100.00;100419.98;2012804;71;32862;-74
2022/02/15 15:20:49;;;;;;;56.07;51.60;;;;;;;10.19;100.00;100411.70;2017942;71;32873;-72
2022/02/15 15:26:34;;;;;;;55.67;51.07;;;;;;;10.27;100.00;100411.65;1997883;71;32813;-74
2022/02/15 15:32:18;;;;;;;54.47;50.13;;;;;;;10.34;100.00;100425.44;2009052;71;32959;-74
2022/02/15 15:38:03;;;;;;;56.63;52.23;;;;;;;10.27;100.00;100431.08;2014208;71;32893;-74
2022/02/15 15:43:47;;;;;;;53.37;49.47;;;;;;;10.24;100.00;100425.53;1996523;71;32857;-74
2022/02/15 15:49:31;;;;;;;53.53;49.53;;;;;;;10.15;100.00;100422.27;2014509;71;32823;-73
2022/02/15 15:55:16;;;;;;;54.50;50.50;;;;;;;10.13;100.00;100403.15;2016006;71;32824;-74
2022/02/15 16:01:01;;;;;;;53.83;49.63;;;;;;;10.18;100.00;100406.47;2007378;71;33389;-73
2022/02/15 16:06:46;;;;;;;54.97;50.83;;;;;;;10.20;100.00;100406.98;2005838;71;32749;-72
2022/02/15 16:12:31;;;;;;;57.77;53.57;;;;;;;10.30;100.00;100404.11;2010737;71;32925;-73
2022/02/15 16:18:16;;;;;;;58.03;53.30;;;;;;;10.32;100.00;100414.34;1994538;71;33355;-73
2022/02/15 16:24:03;;;;;;;58.30;53.90;;;;;;;10.35;100.00;100413.78;1990964;71;32836;-74
2022/02/15 16:29:48;;;;;;;57.27;52.67;;;;;;;10.37;100.00;100417.91;2014287;71;32919;-74
2022/02/15 16:35:33;;;;;;;60.10;55.20;;;;;;;10.31;100.00;100419.06;2018021;71;33327;-74
2022/02/15 16:41:18;;;;;;;60.70;56.07;;;;;;;10.28;100.00;100398.84;2005723;71;32765;-74
2022/02/15 16:47:03;;;;;;;61.17;56.47;;;;;;;10.27;100.00;100390.24;2003570;71;33472;-73
2022/02/15 16:52:48;;;;;;;60.57;55.60;;;;;;;10.19;100.00;100390.89;2011266;71;32814;-72
2022/02/15 16:58:32;;;;;;;64.47;59.57;;;;;;;10.21;100.00;100398.94;2003972;71;32812;-74
2022/02/15 17:04:17;;;;;;;63.97;58.73;;;;;;;10.20;100.00;100399.48;2017909;71;32785;-73
2022/02/15 17:10:01;;;;;;;62.77;57.87;;;;;;;10.18;100.00;100402.31;2018041;71;32958;-72
2022/02/15 17:15:45;;;;;;;65.90;60.67;;;;;;;10.09;100.00;100402.09;2000164;71;32751;-72
2022/02/15 17:21:29;;;;;;;65.37;59.97;;;;;;;10.10;100.00;100412.04;2010482;71;32928;-73
2022/02/15 17:27:15;;;;;;;66.03;60.67;;;;;;;10.11;100.00;100419.81;2005123;71;32907;-72
2022/02/15 17:33:00;;;;;;;60.20;55.10;;;;;;;10.08;100.00;100430.12;2004036;71;33269;-75
2022/02/15 17:38:44;;;;;;;60.10;54.93;;;;;;;10.02;100.00;100441.25;2016082;71;32817;-74
2022/02/15 17:44:28;;;;;;;57.63;52.70;;;;;;;10.09;100.00;100445.09;2011298;71;32827;-74
2022/02/15 17:50:13;;;;;;;56.90;51.87;;;;;;;10.08;100.00;100446.77;2012967;71;32954;-74
2022/02/15 17:55:57;;;;;;;53.20;48.50;;;;;;;10.01;100.00;100429.09;1991154;71;32854;-74
2022/02/15 18:01:41;;;;;;;55.50;50.70;;;;;;;9.93;100.00;100419.42;1998496;70;33316;-73
2022/02/15 18:07:25;;;;;;;51.57;46.70;;;;;;;9.88;100.00;100418.66;2005192;71;33409;-74
2022/02/15 18:13:13;;;;;;;52.60;47.73;;;;;;;9.86;100.00;100424.48;2000316;71;32755;-71
2022/02/15 18:18:55;;;;;;;53.70;49.03;;;;;;;9.84;100.00;100418.39;1994399;71;33366;-72
2022/02/15 18:24:40;;;;;;;51.83;47.27;;;;;;;9.88;100.00;100422.23;2005100;71;32880;-72
2022/02/15 18:30:26;;;;;;;54.97;49.87;;;;;;;9.78;100.00;100420.95;2009083;71;33432;-74
2022/02/15 18:36:10;;;;;;;54.50;49.80;;;;;;;9.81;100.00;100425.91;2000372;71;33241;-73
2022/02/15 18:41:54;;;;;;;51.17;46.53;;;;;;;9.78;100.00;100422.89;2010894;71;32920;-74
2022/02/15 18:47:39;;;;;;;54.27;49.43;;;;;;;9.81;100.00;100418.15;2009495;71;33304;-74
2022/02/15 18:53:25;;;;;;;57.03;52.03;;;;;;;9.82;100.00;100420.64;1999907;71;32828;-72
2022/02/15 18:59:09;;;;;;;54.83;50.00;;;;;;;9.84;100.00;100424.52;1990977;71;32771;-72
2022/02/15 19:04:53;;;;;;;54.67;49.57;;;;;;;9.89;100.00;100423.06;2014379;71;33302;-72
2022/02/15 19:10:36;;;;;;;51.73;47.03;;;;;;;9.86;100.00;100420.33;2000270;71;32770;-74
2022/02/15 19:16:20;;;;;;;51.33;46.53;;;;;;;9.88;100.00;100412.52;2014343;71;33291;-72
2022/02/15 19:22:05;;;;;;;54.57;49.97;;;;;;;9.89;100.00;100407.25;2003443;71;32865;-73
2022/02/15 19:27:50;;;;;;;51.93;47.17;;;;;;;9.88;100.00;100408.36;1997988;71;32895;-73
2022/02/15 19:33:34;;;;;;;50.80;46.20;;;;;;;9.82;100.00;100402.61;2011198;71;32828;-75
2022/02/15 19:39:20;;;;;;;49.53;44.93;;;;;;;9.76;100.00;100403.77;2014455;71;32981;-73
2022/02/15 19:45:05;;;;;;;47.70;43.30;;;;;;;9.80;100.00;100399.84;2016361;71;32873;-74
2022/02/15 19:50:50;;;;;;;51.00;46.33;;;;;;;9.83;100.00;100390.41;2014396;71;32843;-73
2022/02/15 19:56:36;;;;;;;51.60;47.00;;;;;;;9.88;100.00;100386.17;1991151;71;32902;-74
2022/02/15 20:02:21;;;;;;;51.00;46.33;;;;;;;9.91;100.00;100384.78;2000106;71;32774;-74
2022/02/15 20:08:05;;;;;;;51.03;46.53;;;;;;;10.00;100.00;100377.48;1996526;71;32880;-73
2022/02/15 20:13:49;;;;;;;52.53;47.60;;;;;;;9.94;100.00;100372.53;2005716;71;33414;-74
2022/02/15 20:19:34;;;;;;;49.70;45.07;;;;;;;10.01;100.00;100360.52;2005925;71;33265;-74
2022/02/15 20:25:18;;;;;;;50.20;45.30;;;;;;;10.07;100.00;100365.47;2002029;71;32861;-74
2022/02/15 20:31:04;;;;;;;48.17;43.57;;;;;;;10.03;100.00;100359.68;2012679;71;32904;-74
2022/02/15 20:36:48;;;;;;;49.30;44.53;;;;;;;10.02;100.00;100346.92;2000195;71;33307;-72
2022/02/15 20:42:33;;;;;;;50.50;45.43;;;;;;;10.04;100.00;100341.92;1998027;71;33297;-74
2022/02/15 20:48:17;;;;;;;48.00;43.00;;;;;;;10.04;100.00;100334.98;1994770;71;32776;-75
2022/02/15 20:54:01;;;;;;;48.70;43.63;;;;;;;10.03;100.00;100334.70;2011231;71;33437;-74
2022/02/15 20:59:46;;;;;;;53.27;48.00;;;;;;;10.06;100.00;100329.12;2016206;71;32835;-73
2022/02/15 21:05:31;;;;;;;51.70;46.63;;;;;;;10.13;100.00;100311.57;2012824;71;32879;-74
2022/02/15 21:11:17;;;;;;;48.10;42.60;;;;;;;10.08;100.00;100313.02;2009306;71;32887;-73
2022/02/15 21:17:01;;;;;;;53.50;48.00;;;;;;;10.13;100.00;100305.20;2011316;71;32912;-73
2022/02/15 21:22:51;;;;;;;55.10;49.83;;;;;;;10.11;100.00;100291.60;2005912;71;32763;-72
2022/02/15 21:28:31;;;;;;;55.73;50.60;;;;;;;10.05;100.00;100283.09;2005718;71;32816;-73
2022/02/15 21:34:17;;;;;;;55.03;49.63;;;;;;;9.98;100.00;100264.01;1994398;71;32832;-73
2022/02/15 21:40:01;;;;;;;55.80;49.83;;;;;;;10.03;100.00;100254.80;2015985;71;32870;-73
2022/02/15 21:45:45;;;;;;;57.60;52.20;;;;;;;10.05;100.00;100231.17;1996438;71;32815;-74
2022/02/15 21:51:29;;;;;;;53.80;48.47;;;;;;;9.98;100.00;100223.78;2003406;71;32812;-74
2022/02/15 21:57:14;;;;;;;56.27;50.87;;;;;;;9.97;100.00;100212.41;2012655;71;32886;-74
2022/02/15 22:02:58;;;;;;;58.43;52.73;;;;;;;10.03;100.00;100213.18;2008928;71;32924;-73
2022/02/15 22:08:42;;;;;;;56.23;50.93;;;;;;;9.99;100.00;100219.89;2007300;71;33438;-74
2022/02/15 22:14:27;;;;;;;55.00;49.03;;;;;;;9.98;100.00;100213.24;2016043;71;32892;-74
2022/02/15 22:20:15;;;;;;;57.93;52.33;;;;;;;10.04;100.00;100205.96;2009540;71;33259;-74
2022/02/15 22:25:59;;;;;;;55.87;49.80;;;;;;;9.95;100.00;100199.97;1991175;70;32865;-72
2022/02/15 22:31:44;;;;;;;55.97;50.37;;;;;;;10.01;100.00;100193.25;2018165;70;32975;-74
2022/02/15 22:37:30;;;;;;;55.70;50.10;;;;;;;10.01;100.00;100188.50;2010563;71;32838;-72
2022/02/15 22:43:14;;;;;;;53.20;47.33;;;;;;;9.96;100.00;100178.05;2005205;71;32960;-73
2022/02/15 22:55:01;;;;;;;59.67;51.43;;;;;;;9.99;100.00;100150.53;1998158;71;33288;-74
2022/02/15 23:00:46;;;;;;;52.63;46.80;;;;;;;10.03;100.00;100134.11;2012436;71;32951;-73
2022/02/15 23:18:34;;;;;;;54.90;49.13;;;;;;;9.99;100.00;100081.73;2005229;71;32824;-72
2022/02/15 23:24:19;;;;;;;55.73;49.90;;;;;;;10.04;100.00;100078.33;2003501;71;33376;-75
2022/02/15 23:30:04;;;;;;;59.83;53.73;;;;;;;10.04;100.00;100070.01;2005831;71;33235;-74
2022/02/15 23:35:49;;;;;;;58.77;53.03;;;;;;;9.99;100.00;100056.20;2009567;71;33478;-74
2022/02/15 23:41:34;;;;;;;53.70;47.93;;;;;;;9.98;100.00;100055.94;1994751;71;32882;-75
2022/02/15 23:47:18;;;;;;;56.77;51.20;;;;;;;10.03;100.00;100041.16;2016368;71;33367;-73
2022/02/15 23:53:02;;;;;;;56.80;50.90;;;;;;;10.00;100.00;100028.73;1994789;71;33244;-74
2022/02/15 23:58:47;;;;;;;58.70;53.03;;;;;;;9.98;100.00;100001.02;2012874;70;32804;-74
